Milford, Utah Weather observations

Data are for observation ending at time listed.
 Day   Time    Ave.   Ave.  Ave.  Vector   Max.   Stn.    Total    Solar   Ave.  
  of    of     Air    Rel.  Wind   Wind    Wind   Baro.  Precip.   Rad.    Soil  
Year   Day     Temp.  Hum.  Speed  Dir.    Gust   Pres.                    Temp. 
2016   (MST)    F      %     mph   deg.    mph     mb.     in.     W/m2     F   
------------------------------------------------------------------------------
  39   11:20   24.5    74    4.4     6      8.6   861.5    0.00     495    34.3
  39   11:30   23.8    76    7.0    16     12.8   861.5    0.00     510    33.9
  39   11:40   22.5    78    7.7    17     12.6   861.4    0.00     521    35.0
  39   11:50   22.8    78    7.1    18     11.5   861.3    0.00     531    33.6
  39   12:00   23.3    77    6.2    26     11.0   861.2    0.00     543    34.1
  39   12:10   23.1    79    6.6    29     10.2   861.2    0.00     551    34.3
  39   12:20   25.2    76    5.3    25      7.7   861.1    0.00     555    34.2
  39   12:30   26.9    72    4.6    21      8.8   861.2    0.00     558    34.3
  39   12:40   26.7    73    5.4    32      8.1   861.3    0.00     564    34.3
  39   12:50   27.0    74    5.2    49      8.3   861.3    0.00     568    35.3
  39   13:00   28.7    72    3.3    35      6.5   861.3    0.00     564    34.2
  39   13:10   30.4    69    3.0    40      6.1   861.4    0.00     563    34.7
  39   13:20   29.4    71    4.2    32      6.8   861.3    0.00     556    34.3
  39   13:30   29.0    73    4.0    42      6.1   861.2    0.00     553    99999.0
  39   13:40   29.5    73    4.0    39      6.2   861.0    0.00     545    99999.0
  39   13:50   30.1    74    4.7    21      9.4   860.9    0.00     533    28.3
  39   14:00   29.6    76    6.3    27      9.5   860.7    0.00     524    99999.0
  39   14:10   29.6    77    6.3    28      8.9   860.4    0.00     512    25.9
  39   14:20   30.2    78    6.7    24     10.7   860.2    0.00     498    34.6
  39   14:30   30.8    78    6.6    28     10.4   860.2    0.00     483    99999.0
  39   14:40   32.2    78    6.6    18     10.9   860.1    0.00     467    48.9
  39   14:50   32.3    78    6.6    14     12.5   860.1    0.00     346    34.7
  39   15:00   31.6    80    8.1    15     13.1   859.9    0.00      46    99999.0
  39   15:10   32.1    81    6.1    12     10.0   859.5    0.00      43    99999.0
  39   15:20   32.4    81    5.2    10     11.0   859.3    0.00      61    53.9
  39   15:30   32.9    79    5.9    10     12.5   859.2    0.00     239    99999.0
  39   15:40   33.0    79    5.0     8     11.0   859.2    0.00     355    99999.0
  39   15:50   33.0    78    5.2     9     11.8   859.3    0.00     334    99999.0
  39   16:00   32.7    78    5.9    11     10.5   859.5    0.00     310    99999.0
  39   16:10   32.3    78    6.7    12     10.3   859.7    0.00     286    99999.0
  39   16:20   32.0    79    7.5    14     11.9   859.7    0.00     236    99999.0
  39   16:30   31.7    80    6.2    26     10.3   859.7    0.00      75    36.7
  39   16:40   30.6    81    6.8    34      9.7   859.6    0.00      72    35.3
  39   16:50   29.4    84    6.2    31     10.0   859.5    0.00      35    31.6
  39   17:00   29.5    84    5.7    26      8.9   859.4    0.00      28    29.9
  39   17:10   29.7    83    5.1    14      8.4   859.2    0.00      23    34.6
  39   17:20   30.0    81    5.5    18      8.5   859.2    0.00      19    99999.0
  39   17:30   28.8    82    4.5    37      6.8   859.2    0.00      17    99999.0
  39   17:40   27.2    85    4.3    36      7.2   859.1    0.00      16    35.4
  39   17:50   26.8    86    4.5    33      6.6   859.0    0.00      11    35.5
  39   18:00   26.6    86    3.7    25      5.4   858.9    0.00       8    33.6
  39   18:10   26.0    86    4.3    14      6.2   858.8    0.00       3    24.5
  39   18:20   25.7    86    4.2    16      6.2   858.8    0.00       3    36.8
  39   18:30   25.7    86    4.4    18      6.5   858.7    0.00       1    35.4
  39   18:40   25.6    86    3.6    16      5.0   858.6    0.00       0    34.7
  39   18:50   25.7    86    3.3    17      5.0   858.5    0.00       0    35.0
  39   19:00   25.9    85    2.0     9      4.3   858.4    0.00       0    99999.0
  39   19:10   25.9    84    2.0    11      4.1   858.4    0.00       0    99999.0
  39   19:20   25.0    85    0.6     1      2.1   858.4    0.00       0    99999.0
  39   19:30   25.2    85    1.2     4      3.9   858.4    0.00       0    99999.0
  39   19:40   25.0    85    1.3     5      3.7   858.3    0.00       0    99999.0
  39   19:50   24.7    85    0.3     1      2.4   858.1    0.00       0    99999.0
  39   20:00   23.5    85    1.6    27      2.4   858.1    0.00       0    99999.0
  39   20:10   21.4    86    1.2    32      2.3   858.1    0.00       0    99999.0
  39   20:20   20.2    88    0.6    37      1.8   858.0    0.00       0    99999.0
  39   20:30   18.6    88    0.4    54      2.3   858.0    0.00       0    99999.0
  39   20:40   18.3    90    0.2    51      2.3   857.9    0.00       0    99999.0
  39   20:50   17.8    89    0.3    59      2.0   857.9    0.00       0    99999.0
  39   21:00   17.2    90    0.1    58      1.3   857.8    0.00       0    99999.0
  39   21:10   18.8    92    0.8   303      2.6   857.7    0.00       0    99999.0
  39   21:20   18.2    91    0.1    73      2.1   857.8    0.00       0    99999.0
  39   21:30   18.2    91    0.6    16      2.1   857.7    0.00       0    33.9
  39   21:40   17.0    90    1.1    47      2.3   857.7    0.00       0    33.8
  39   21:50   15.5    90    0.0     0      0.0   857.8    0.00       0    33.9
  39   22:00   14.9    91    0.0     0      0.0   857.8    0.00       0    33.8
  39   22:10   15.5    92    0.2   315      2.3   857.8    0.00       0    33.9
  39   22:20   19.6    94    2.0   307      3.9   857.8    0.00       0    33.8
  39   22:30   17.7    87    0.5    46      1.7   857.9    0.00       0    33.8
  39   22:40   13.3    88    0.7    16      2.3   857.9    0.00       0    33.8
  39   22:50   16.2    93    1.2    16      3.6   857.7    0.00       0    33.8
  39   23:00   15.3    90    0.4    70      2.2   857.7    0.00       0    33.8
  39   23:10   12.8    89    0.0    85      0.2   857.6    0.00       0    33.7
  39   23:20   12.0    90    0.0     0      0.0   857.6    0.00       0    33.8
  39   23:30   12.6    92    1.3    12      2.9   857.5    0.00       0    33.8
  39   23:40   14.2    92    1.6    39      2.8   857.5    0.00       0    33.8
  39   23:50   12.9    92    1.5    61      2.6   857.6    0.00       0    33.8
  40    0:00   12.0    92    0.3    20      2.1   857.7    0.00       0    33.8
  40    0:10   12.6    93    0.7     1      2.6   857.7    0.00       0    33.8
  40    0:20   13.1    93    0.0   314      0.7   857.7    0.00       0    33.7
  40    0:30   14.0    93    0.4   336      3.6   857.6    0.00       0    33.8
  40    0:40   15.5    93    0.8   316      2.3   857.5    0.00       0    33.7
  40    0:50   15.3    93    1.6   304      3.3   857.5    0.00       0    33.8
  40    1:00   14.9    92    1.8   287      3.1   857.6    0.00       0    33.8
  40    1:10   14.1    93    2.3   275      3.4   857.5    0.00       0    33.8
  40    1:20   14.3    93    0.4   250      1.9   857.5    0.00       0    33.7
  40    1:30   13.8    92    0.0     0      0.0   857.5    0.00       0    33.8
  40    1:40   11.9    91    0.0     0      0.0   857.5    0.00       0    33.8
  40    1:50    9.1    90    1.2   179      3.9   857.4    0.00       0    33.7
  40    2:00    7.6    91    1.2   201      1.8   857.2    0.00       0    33.8
  40    2:10    8.1    91    0.2   240      1.2   857.0    0.00       0    33.8
  40    2:20    8.3    91    0.0     0      0.0   857.0    0.00       0    33.8
  40    2:30    9.2    91    0.0     0      0.0   856.8    0.00       0    33.8
  40    2:40   10.1    91    0.0     0      0.0   856.7    0.00       0    33.7
  40    2:50    9.5    90    1.2   186      3.0   856.6    0.00       0    33.8
  40    3:00    8.8    91    0.0     0      0.0   856.6    0.00       0    33.7
  40    3:10    8.7    91    0.0     0      0.0   856.5    0.00       0    33.8
  40    3:20    7.8    90    0.8   169      2.8   856.4    0.00       0    33.8
  40    3:30    5.6    89    0.9   185      3.0   856.3    0.00       0    33.7
  40    3:40    5.9    90    0.2   244      1.7   856.2    0.00       0    33.7
  40    3:50    6.5    90    0.1   247      0.8   856.1    0.00       0    33.8
  40    4:00    6.0    89    0.0     0      0.0   856.1    0.00       0    33.7
  40    4:10    5.5    89    0.0     0      0.0   856.1    0.00       0    33.7
  40    4:20    5.6    89    0.0     0      0.0   856.1    0.00       0    33.7
  40    4:30    4.8    88    0.0     0      0.0   856.1    0.00       0    33.7
  40    4:40    3.1    89    0.0     0      0.0   856.1    0.00       0    33.7
  40    4:50    2.2    89    0.0     0      0.0   856.0    0.00       0    33.7
  40    5:00    2.3    88    0.0     0      0.0   856.0    0.00       0    33.7
  40    5:10    2.3    88    0.0     0      0.0   856.0    0.00       0    33.7
  40    5:20    2.6    88    0.0     0      0.0   856.0    0.00       0    33.7
  40    5:30    2.8    88    0.0     0      0.0   856.0    0.00       0    33.7
  40    5:40    3.7    88    1.0    43      2.1   856.0    0.00       0    33.7
  40    5:50    2.6    88    0.5    62      1.6   856.0    0.00       0    99999.0
  40    6:00    2.1    88    1.3   184      2.9   856.1    0.00       0    33.7
  40    6:10    1.5    88    1.6   193      2.6   856.1    0.00       0    33.7
  40    6:20    1.8    88    0.9   233      2.4   856.1    0.00       0    33.7
  40    6:30    2.1    88    1.0   228      2.3   856.0    0.00       0    33.7
  40    6:40    2.0    88    0.5   245      1.8   856.0    0.00       0    33.7
  40    6:50    2.3    88    0.1   231      0.9   855.9    0.00       0    33.7
  40    7:00    2.8    88    0.0     0      0.0   855.8    0.00       0    33.7
  40    7:10    3.4    89    0.3    56      1.8   855.9    0.00       0    33.7
  40    7:20    3.5    88    0.8    68      2.0   856.0    0.00       0    33.7
  40    7:30    2.5    88    1.1    53      1.7   856.1    0.00       1    33.7
  40    7:40    1.7    88    0.7    50      1.5   856.1    0.00       4    33.7
  40    7:50    1.9    88    0.0     0      0.0   856.1    0.00       6    33.7
  40    8:00    2.7    88    0.7   242      2.3   856.1    0.00      15    33.7
  40    8:10    3.2    88    1.0   258      1.8   856.1    0.00      32    33.7
  40    8:20    3.9    88    0.6   244      1.8   856.2    0.00      44    33.7
  40    8:30    5.1    88    0.0   225      0.5   856.2    0.00      62    33.7
  40    8:40    6.6    88    0.0     0      0.0   856.3    0.00      91    33.7
  40    8:50    6.3    88    0.9   162      2.0   856.5    0.00      96    33.7
  40    9:00    5.4    88    1.1   168      1.7   856.6    0.00     112    33.7
  40    9:10    7.2    88    1.1   149      2.0   856.7    0.00     154    33.7
  40    9:20    7.6    88    1.3   154      2.1   856.7    0.00     175    33.7
  40    9:30    8.1    88    1.5   160      2.1   856.9    0.00     199    33.7
  40    9:40    9.7    89    1.6   157      2.3   857.0    0.00     216    33.7
  40    9:50   11.7    89    1.7   154      2.3   857.1    0.00     244    33.8
  40   10:00   14.7    90    0.9   146      2.1   857.2    0.00     273    33.8
  40   10:10   18.5    91    0.0     0      0.0   857.3    0.00     301    33.8
  40   10:20   21.9    89    0.8   153      2.4   857.6    0.00     346    33.8
  40   10:30   21.7    88    0.6   152      2.0   857.8    0.00     371    33.9
  40   10:40   24.5    82    0.4    81      2.5   858.0    0.00     435    34.0
  40   10:50   23.4    79    1.1     0      3.1   858.2    0.00     443    33.5
  40   11:00   26.3    74    0.6    66      2.2   858.5    0.00     472    33.9
  40   11:10   26.5    69    0.0     0      0.0   858.8    0.00     497    33.9

Return to Milford, Utah graphs page.


Western Regional Climate Center,wrcc@dri.edu